Terminal Aerodrome Forecast
Issued by NWS

Home | Current Version | Previous Version | Text Only | Print | Product List | Glossary On
Versions: 1 2 3 4 5 6 7 8 9 10 11 12 13 14
000
FTUS45 KLKN 192320
TAFELY
TAF
KELY 192320Z 2000/2024 24012KT P6SM SCT040 BKN100
      TEMPO 2000/2003 BKN040
     FM200900 19015KT P6SM VCSH SCT025 BKN050
      TEMPO 2020/2024 17020G28KT -RA BKN030=

USA.gov is the U.S. government's official web portal to all federal, state and local government web resources and services.